Time;durP1;ratioP1;P1;durP2;ratioP2;P2;SDS_P1;SDS_P2;PMS_P1;PMS_P2;Temp;Humidity;BMP_temperature;BMP_pressure;BME280_temperature;BME280_humidity;BME280_pressure;Samples;Min_cycle;Max_cycle;Signal;HPM_P1;HPM_P2
2023/06/01 00:01:12;;;;;;;3.53;2.60;;;;;;;;;;5045631;28;20217;-27
2023/06/01 00:03:39;;;;;;;5.27;2.60;;;;;;;;;;5042768;28;20202;-30
2023/06/01 00:06:07;;;;;;;4.60;2.50;;;;;;;;;;5049327;28;20231;-27
2023/06/01 00:08:36;;;;;;;3.73;2.70;;;;;;;;;;5051951;28;20212;-28
2023/06/01 00:11:03;;;;;;;4.40;2.60;;;;;;;;;;5043297;28;20228;-28
2023/06/01 00:13:30;;;;;;;3.27;2.93;;;;;;;;;;5043324;28;20212;-26
2023/06/01 00:15:57;;;;;;;3.73;2.60;;;;;;;;;;5046435;28;20232;-28
2023/06/01 00:18:27;;;;;;;3.43;2.50;;;;;;;;;;5049243;28;20216;-28
2023/06/01 00:20:54;;;;;;;3.47;2.70;;;;;;;;;;5050327;28;20224;-30
2023/06/01 00:23:21;;;;;;;3.00;2.37;;;;;;;;;;5050798;28;20215;-29
2023/06/01 00:25:50;;;;;;;3.87;2.63;;;;;;;;;;5038219;28;20231;-30
2023/06/01 00:28:17;;;;;;;4.17;2.30;;;;;;;;;;5053708;28;20203;-28
2023/06/01 00:30:44;;;;;;;6.83;2.83;;;;;;;;;;5053157;28;20210;-27
2023/06/01 00:33:11;;;;;;;3.40;2.70;;;;;;;;;;5045621;28;20311;-27
2023/06/01 00:35:38;;;;;;;5.80;2.77;;;;;;;;;;5053168;28;20221;-25
2023/06/01 00:38:06;;;;;;;5.03;2.77;;;;;;;;;;5054381;28;20202;-28
2023/06/01 00:40:33;;;;;;;3.40;2.57;;;;;;;;;;5053463;28;20238;-25
2023/06/01 00:43:02;;;;;;;2.73;2.40;;;;;;;;;;5041587;28;20213;-26
2023/06/01 00:45:29;;;;;;;4.60;2.67;;;;;;;;;;5044425;28;20302;-26
2023/06/01 00:47:56;;;;;;;3.00;2.40;;;;;;;;;;5044717;28;20211;-28
2023/06/01 00:50:23;;;;;;;3.43;2.57;;;;;;;;;;5053410;28;20220;-27
2023/06/01 00:52:51;;;;;;;3.53;2.93;;;;;;;;;;5053253;28;20208;-26
2023/06/01 00:55:18;;;;;;;3.70;2.47;;;;;;;;;;5044121;28;20205;-28
2023/06/01 00:57:45;;;;;;;4.90;2.87;;;;;;;;;;5045471;28;20214;-27
2023/06/01 01:00:14;;;;;;;3.67;2.33;;;;;;;;;;5050186;28;20228;-28
2023/06/01 01:02:44;;;;;;;3.00;2.57;;;;;;;;;;5040448;28;20204;-27
2023/06/01 01:05:12;;;;;;;4.07;2.70;;;;;;;;;;5049046;28;20246;-27
2023/06/01 01:07:44;;;;;;;2.97;2.40;;;;;;;;;;5051937;28;20667;-29
2023/06/01 01:10:15;;;;;;;2.90;2.60;;;;;;;;;;5049569;28;20207;-28
2023/06/01 01:12:46;;;;;;;3.60;2.40;;;;;;;;;;5046404;28;20199;-29
2023/06/01 01:15:19;;;;;;;3.47;2.23;;;;;;;;;;5053319;28;20204;-30
2023/06/01 01:17:46;;;;;;;3.23;2.70;;;;;;;;;;5042883;28;20213;-29
2023/06/01 01:20:15;;;;;;;3.63;2.53;;;;;;;;;;5043235;28;20224;-30
2023/06/01 01:22:58;;;;;;;3.10;2.77;;;;;;;;;;5052923;28;20204;-27
2023/06/01 01:25:30;;;;;;;3.53;2.40;;;;;;;;;;5043221;28;20226;-28
2023/06/01 01:28:08;;;;;;;3.53;2.60;;;;;;;;;;5049318;28;20207;-28
2023/06/01 01:30:38;;;;;;;3.33;2.80;;;;;;;;;;5033575;28;20208;-26
2023/06/01 01:33:05;;;;;;;3.83;2.57;;;;;;;;;;5042445;28;20218;-25
2023/06/01 01:35:33;;;;;;;2.87;2.57;;;;;;;;;;5052941;28;20230;-26
2023/06/01 01:38:00;;;;;;;5.37;2.80;;;;;;;;;;5052815;28;20260;-28
2023/06/01 01:40:28;;;;;;;2.97;2.37;;;;;;;;;;5045730;28;20711;-25
2023/06/01 01:42:55;;;;;;;5.07;2.63;;;;;;;;;;5052640;28;20207;-27
2023/06/01 01:45:22;;;;;;;3.93;2.50;;;;;;;;;;5053254;28;20284;-28
2023/06/01 01:47:55;;;;;;;4.70;2.70;;;;;;;;;;5044428;28;20203;-29
2023/06/01 01:50:24;;;;;;;3.57;3.13;;;;;;;;;;5051304;28;20211;-27
2023/06/01 01:52:53;;;;;;;3.70;2.60;;;;;;;;;;5052805;28;20208;-27
2023/06/01 01:55:23;;;;;;;4.80;2.67;;;;;;;;;;5047679;28;20204;-25
2023/06/01 01:57:51;;;;;;;3.87;2.53;;;;;;;;;;5051522;28;20212;-29
2023/06/01 02:00:19;;;;;;;2.70;2.50;;;;;;;;;;5052501;28;20230;-27
2023/06/01 02:02:46;;;;;;;3.67;2.37;;;;;;;;;;5040633;28;20206;-27
2023/06/01 02:05:15;;;;;;;3.40;2.60;;;;;;;;;;5050037;28;20212;-26
2023/06/01 02:07:42;;;;;;;3.23;2.93;;;;;;;;;;5053010;28;20208;-29
2023/06/01 02:10:09;;;;;;;5.40;3.13;;;;;;;;;;5047105;28;20467;-26
2023/06/01 02:12:37;;;;;;;4.90;2.37;;;;;;;;;;5048275;28;20243;-28
2023/06/01 02:15:04;;;;;;;5.20;2.60;;;;;;;;;;5051347;28;20205;-29
2023/06/01 02:17:32;;;;;;;3.33;2.60;;;;;;;;;;5045386;28;20289;-27
2023/06/01 02:20:00;;;;;;;4.70;2.70;;;;;;;;;;5050169;28;20227;-26
2023/06/01 02:22:28;;;;;;;4.33;2.70;;;;;;;;;;5052159;28;20202;-30
2023/06/01 02:24:56;;;;;;;3.13;2.83;;;;;;;;;;5042241;28;20212;-27
2023/06/01 02:27:23;;;;;;;4.57;2.47;;;;;;;;;;5050741;28;20230;-26
2023/06/01 02:29:50;;;;;;;5.17;2.80;;;;;;;;;;5051656;28;20226;-28
2023/06/01 02:32:17;;;;;;;3.00;2.70;;;;;;;;;;5048668;28;20202;-28
2023/06/01 02:34:44;;;;;;;3.33;2.80;;;;;;;;;;5051536;28;20209;-27
2023/06/01 02:37:11;;;;;;;3.37;2.57;;;;;;;;;;5052546;28;20222;-28
2023/06/01 02:39:40;;;;;;;6.67;2.83;;;;;;;;;;5049396;28;20205;-26
2023/06/01 02:42:07;;;;;;;3.07;2.77;;;;;;;;;;5041013;28;20215;-29
2023/06/01 02:44:34;;;;;;;3.30;2.70;;;;;;;;;;5052741;28;20202;-28
2023/06/01 02:47:02;;;;;;;2.87;2.63;;;;;;;;;;5047564;28;20253;-26
2023/06/01 02:49:29;;;;;;;3.20;2.63;;;;;;;;;;5049681;28;20207;-28
2023/06/01 02:51:56;;;;;;;3.43;2.87;;;;;;;;;;5052260;28;20261;-30
2023/06/01 02:54:23;;;;;;;4.73;2.57;;;;;;;;;;5052475;28;20230;-28
2023/06/01 02:56:52;;;;;;;3.83;2.57;;;;;;;;;;5044437;28;20231;-29
2023/06/01 02:59:19;;;;;;;5.43;2.80;;;;;;;;;;5051886;28;20210;-26
2023/06/01 03:01:46;;;;;;;3.97;2.73;;;;;;;;;;5049467;28;20231;-26
2023/06/01 03:04:14;;;;;;;2.77;2.57;;;;;;;;;;5049385;28;20210;-29
2023/06/01 03:06:43;;;;;;;3.43;2.50;;;;;;;;;;5050705;28;20222;-27
2023/06/01 03:09:12;;;;;;;3.90;2.97;;;;;;;;;;5051119;28;20253;-29
2023/06/01 03:11:40;;;;;;;2.70;2.50;;;;;;;;;;5040531;28;20286;-28
2023/06/01 03:14:08;;;;;;;4.23;3.10;;;;;;;;;;5042017;28;20208;-28
2023/06/01 03:16:35;;;;;;;3.43;2.67;;;;;;;;;;5044487;28;20289;-28
2023/06/01 03:19:03;;;;;;;5.53;2.80;;;;;;;;;;5050307;28;20264;-28
2023/06/01 03:21:31;;;;;;;4.23;2.67;;;;;;;;;;5050806;28;20224;-28
2023/06/01 03:23:58;;;;;;;3.40;2.70;;;;;;;;;;5050416;28;20206;-27
2023/06/01 03:26:25;;;;;;;4.77;2.97;;;;;;;;;;5041053;28;20448;-27
2023/06/01 03:28:52;;;;;;;2.77;2.57;;;;;;;;;;5050480;28;20210;-28
2023/06/01 03:31:21;;;;;;;3.73;2.40;;;;;;;;;;5048726;28;20205;-29
2023/06/01 03:33:48;;;;;;;6.27;2.90;;;;;;;;;;5050023;28;20256;-28
2023/06/01 03:36:16;;;;;;;3.70;2.47;;;;;;;;;;5049908;28;20236;-27
2023/06/01 03:38:43;;;;;;;4.43;2.57;;;;;;;;;;5051281;28;20205;-27
2023/06/01 03:41:10;;;;;;;4.50;2.80;;;;;;;;;;5040685;28;20226;-29
2023/06/01 03:43:37;;;;;;;2.80;2.60;;;;;;;;;;5044883;28;20203;-28
2023/06/01 03:46:05;;;;;;;3.37;2.60;;;;;;;;;;5047372;28;20230;-28
2023/06/01 03:48:33;;;;;;;4.97;2.57;;;;;;;;;;5046054;28;20203;-28
2023/06/01 03:51:00;;;;;;;3.37;3.07;;;;;;;;;;5052098;28;20211;-27
2023/06/01 03:53:27;;;;;;;4.30;2.67;;;;;;;;;;5157655;22;20233;-24
2023/06/01 03:55:56;;;;;;;5.97;3.03;;;;;;;;;;5061079;28;20230;-28
2023/06/01 03:58:23;;;;;;;3.53;2.60;;;;;;;;;;5058231;28;20202;-24
2023/06/01 04:00:50;;;;;;;3.73;2.73;;;;;;;;;;5055229;28;20225;-26
2023/06/01 04:03:21;;;;;;;3.50;3.20;;;;;;;;;;5058807;28;20203;-24
2023/06/01 04:05:50;;;;;;;5.67;2.67;;;;;;;;;;5059998;28;20214;-27
2023/06/01 04:08:19;;;;;;;4.17;2.90;;;;;;;;;;5058295;28;20250;-26
2023/06/01 04:10:47;;;;;;;3.20;2.77;;;;;;;;;;5058203;28;20200;-26
2023/06/01 04:13:14;;;;;;;3.67;2.90;;;;;;;;;;5058379;28;20199;-27
2023/06/01 04:15:42;;;;;;;3.87;2.80;;;;;;;;;;5061041;28;20225;-29
2023/06/01 04:18:09;;;;;;;4.93;3.23;;;;;;;;;;5060075;28;20340;-24
2023/06/01 04:20:36;;;;;;;3.83;3.33;;;;;;;;;;5060088;28;20221;-27
2023/06/01 04:23:05;;;;;;;4.80;2.60;;;;;;;;;;5059254;28;20202;-29
2023/06/01 04:25:33;;;;;;;2.90;2.40;;;;;;;;;;5057516;28;20432;-26
2023/06/01 04:28:00;;;;;;;3.07;2.77;;;;;;;;;;5050402;28;20202;-27
2023/06/01 04:30:27;;;;;;;3.50;2.80;;;;;;;;;;5060661;28;20198;-26
2023/06/01 04:32:55;;;;;;;3.27;2.87;;;;;;;;;;5065068;28;20229;-25
2023/06/01 04:35:23;;;;;;;2.83;2.50;;;;;;;;;;5052696;28;20225;-27
2023/06/01 04:37:50;;;;;;;4.60;2.40;;;;;;;;;;5070009;28;20210;-27
2023/06/01 04:40:19;;;;;;;3.50;2.70;;;;;;;;;;5069959;28;20214;-27
2023/06/01 04:42:48;;;;;;;4.73;2.77;;;;;;;;;;5060048;28;20212;-27
2023/06/01 04:45:15;;;;;;;4.30;2.60;;;;;;;;;;5067529;28;20205;-27
2023/06/01 04:47:44;;;;;;;4.90;2.60;;;;;;;;;;5057789;28;20217;-24
2023/06/01 04:50:12;;;;;;;4.07;2.80;;;;;;;;;;5051670;28;20330;-26
2023/06/01 04:52:39;;;;;;;2.90;2.67;;;;;;;;;;5069690;28;20240;-24
2023/06/01 04:55:07;;;;;;;3.83;3.07;;;;;;;;;;5069806;28;20210;-24
2023/06/01 04:57:36;;;;;;;6.97;2.93;;;;;;;;;;5059529;28;20209;-27
2023/06/01 05:00:09;;;;;;;4.97;3.13;;;;;;;;;;5058134;28;20210;-26
2023/06/01 05:02:36;;;;;;;3.90;2.57;;;;;;;;;;5061608;28;20222;-27
2023/06/01 05:05:04;;;;;;;2.70;2.50;;;;;;;;;;5052522;28;20580;-26
2023/06/01 05:07:31;;;;;;;3.17;2.60;;;;;;;;;;5062782;28;20203;-26
2023/06/01 05:09:58;;;;;;;6.03;3.17;;;;;;;;;;5064372;28;20203;-25
2023/06/01 05:12:25;;;;;;;4.93;3.00;;;;;;;;;;5055456;28;20304;-26
2023/06/01 05:14:54;;;;;;;3.33;3.03;;;;;;;;;;5058631;28;20203;-25
2023/06/01 05:17:21;;;;;;;3.20;2.90;;;;;;;;;;5051732;28;20233;-27
2023/06/01 05:19:48;;;;;;;4.33;3.03;;;;;;;;;;5052904;28;20214;-27
2023/06/01 05:22:15;;;;;;;5.23;3.40;;;;;;;;;;5071182;28;20256;-27
2023/06/01 05:24:43;;;;;;;6.03;3.27;;;;;;;;;;5067740;28;20294;-26
2023/06/01 05:27:10;;;;;;;6.27;3.30;;;;;;;;;;5058714;28;20226;-26
2023/06/01 05:29:37;;;;;;;6.40;3.53;;;;;;;;;;5073223;28;20199;-25
2023/06/01 05:32:06;;;;;;;6.33;3.90;;;;;;;;;;5065853;28;20213;-29
2023/06/01 05:34:33;;;;;;;3.50;3.20;;;;;;;;;;5063843;28;20217;-24
2023/06/01 05:37:00;;;;;;;4.93;3.53;;;;;;;;;;5057014;28;20230;-26
2023/06/01 05:39:28;;;;;;;4.83;3.60;;;;;;;;;;5052702;28;20238;-24
2023/06/01 05:41:55;;;;;;;6.30;4.03;;;;;;;;;;5058948;28;20238;-26
2023/06/01 05:44:22;;;;;;;3.77;3.37;;;;;;;;;;5058257;28;20289;-25
2023/06/01 05:46:50;;;;;;;4.90;3.70;;;;;;;;;;5056514;28;20228;-30
2023/06/01 05:49:19;;;;;;;7.27;3.87;;;;;;;;;;5054745;28;20214;-27
2023/06/01 05:51:46;;;;;;;5.97;3.67;;;;;;;;;;5072424;28;20222;-27
2023/06/01 05:54:13;;;;;;;4.80;3.80;;;;;;;;;;5068788;28;20203;-27
2023/06/01 05:56:40;;;;;;;4.77;3.50;;;;;;;;;;5060704;28;20220;-27
2023/06/01 05:59:07;;;;;;;4.33;3.93;;;;;;;;;;5061126;28;20211;-28
2023/06/01 06:01:35;;;;;;;4.63;3.60;;;;;;;;;;5071037;28;20216;-28
2023/06/01 06:04:02;;;;;;;6.40;3.77;;;;;;;;;;5057310;28;20208;-25
2023/06/01 06:06:31;;;;;;;9.93;4.17;;;;;;;;;;5053917;28;20220;-25
2023/06/01 06:08:58;;;;;;;10.13;4.57;;;;;;;;;;5053208;28;20561;-27
2023/06/01 06:11:25;;;;;;;8.67;3.87;;;;;;;;;;5057542;28;20196;-25
2023/06/01 06:13:53;;;;;;;6.90;4.17;;;;;;;;;;5054602;28;20512;-28
2023/06/01 06:16:20;;;;;;;5.90;3.83;;;;;;;;;;5065494;28;20228;-28
2023/06/01 06:18:47;;;;;;;4.93;3.77;;;;;;;;;;5058261;28;20657;-27
2023/06/01 06:21:14;;;;;;;6.33;4.23;;;;;;;;;;5070004;28;20230;-27
2023/06/01 06:23:42;;;;;;;6.07;4.23;;;;;;;;;;5071371;28;20216;-28
2023/06/01 06:26:09;;;;;;;4.87;3.50;;;;;;;;;;5060832;28;20223;-26
2023/06/01 06:28:37;;;;;;;4.57;3.57;;;;;;;;;;5061035;28;20209;-28
2023/06/01 06:31:04;;;;;;;5.30;4.03;;;;;;;;;;5051815;28;20227;-26
2023/06/01 06:33:31;;;;;;;6.50;3.70;;;;;;;;;;5051145;28;20209;-27
2023/06/01 06:35:58;;;;;;;5.30;3.70;;;;;;;;;;5066190;28;20225;-30
2023/06/01 06:38:25;;;;;;;5.50;3.77;;;;;;;;;;5072620;28;20207;-27
2023/06/01 06:40:53;;;;;;;4.17;3.47;;;;;;;;;;5058068;28;20217;-27
2023/06/01 06:43:20;;;;;;;5.13;3.50;;;;;;;;;;5070490;28;20207;-30
2023/06/01 06:45:47;;;;;;;4.47;3.27;;;;;;;;;;5069343;28;20225;-29
2023/06/01 06:48:15;;;;;;;7.63;3.73;;;;;;;;;;5052207;28;20212;-27
2023/06/01 06:50:44;;;;;;;5.70;3.60;;;;;;;;;;5052065;28;20197;-27
2023/06/01 06:53:11;;;;;;;4.93;3.50;;;;;;;;;;5064192;28;20205;-28
2023/06/01 06:55:38;;;;;;;5.07;3.27;;;;;;;;;;5062658;28;20225;-27
2023/06/01 06:58:06;;;;;;;6.03;3.70;;;;;;;;;;5054607;28;20682;-29
2023/06/01 07:00:33;;;;;;;5.20;3.25;;;;;;;;;;5071939;28;20288;-26
2023/06/01 07:03:00;;;;;;;4.25;3.28;;;;;;;;;;5061309;28;20225;-28
2023/06/01 07:05:28;;;;;;;4.30;3.58;;;;;;;;;;5051298;28;20217;-26
2023/06/01 07:07:55;;;;;;;4.32;3.38;;;;;;;;;;5051314;28;20215;-29
2023/06/01 07:10:22;;;;;;;6.10;3.50;;;;;;;;;;5050874;28;20206;-28
2023/06/01 07:12:49;;;;;;;3.88;3.40;;;;;;;;;;5057280;28;20686;-29
2023/06/01 07:15:17;;;;;;;4.93;3.20;;;;;;;;;;5052731;28;20206;-26
2023/06/01 07:17:45;;;;;;;7.18;3.47;;;;;;;;;;5064062;28;20657;-28
2023/06/01 07:20:12;;;;;;;4.25;3.00;;;;;;;;;;5054335;28;20210;-26
2023/06/01 07:22:40;;;;;;;6.20;3.35;;;;;;;;;;5071974;28;20234;-27
2023/06/01 07:25:08;;;;;;;7.13;3.67;;;;;;;;;;5068859;28;20199;-27
2023/06/01 07:27:36;;;;;;;4.22;3.30;;;;;;;;;;5056396;28;20332;-28
2023/06/01 07:30:03;;;;;;;4.40;3.15;;;;;;;;;;5051688;28;20216;-28
2023/06/01 07:32:31;;;;;;;3.53;2.90;;;;;;;;;;5057504;28;20196;-27
2023/06/01 07:34:59;;;;;;;3.40;3.05;;;;;;;;;;5059010;28;20572;-26
2023/06/01 07:37:26;;;;;;;4.57;3.00;;;;;;;;;;5050138;28;20323;-26
2023/06/01 07:39:54;;;;;;;5.80;3.00;;;;;;;;;;5062263;28;20233;-28
2023/06/01 07:42:21;;;;;;;6.50;3.47;;;;;;;;;;5060660;28;20219;-28
2023/06/01 07:44:48;;;;;;;4.80;3.90;;;;;;;;;;5070846;28;20212;-30
2023/06/01 07:47:15;;;;;;;7.93;3.65;;;;;;;;;;5054092;28;20235;-26
2023/06/01 07:49:44;;;;;;;9.27;3.72;;;;;;;;;;5058708;28;20210;-29
2023/06/01 07:52:11;;;;;;;4.40;3.25;;;;;;;;;;5072248;28;20212;-30
2023/06/01 07:54:38;;;;;;;8.50;3.55;;;;;;;;;;5067064;28;20212;-29
2023/06/01 07:57:06;;;;;;;5.68;3.38;;;;;;;;;;5068313;28;20238;-30
2023/06/01 07:59:33;;;;;;;6.95;3.70;;;;;;;;;;5054528;28;20203;-30
2023/06/01 08:02:00;;;;;;;3.88;3.10;;;;;;;;;;5063981;28;20223;-26
2023/06/01 08:04:33;;;;;;;7.53;3.38;;;;;;;;;;5060046;28;20273;-29
2023/06/01 08:07:03;;;;;;;7.45;3.28;;;;;;;;;;5066007;28;20218;-28
2023/06/01 08:09:31;;;;;;;5.50;3.30;;;;;;;;;;5065526;28;20209;-30
2023/06/01 08:11:58;;;;;;;6.93;3.90;;;;;;;;;;5057750;28;20273;-28
2023/06/01 08:14:25;;;;;;;6.30;3.17;;;;;;;;;;5058572;28;20211;-28
2023/06/01 08:16:52;;;;;;;3.33;2.92;;;;;;;;;;5053694;28;20228;-31
2023/06/01 08:19:19;;;;;;;4.65;3.35;;;;;;;;;;5058106;28;20213;-28
2023/06/01 08:21:46;;;;;;;3.97;3.42;;;;;;;;;;5050009;28;20219;-31
2023/06/01 08:24:16;;;;;;;3.40;3.10;;;;;;;;;;5052502;28;20203;-29
2023/06/01 08:26:43;;;;;;;4.50;2.80;;;;;;;;;;5062160;28;20226;-29
2023/06/01 08:29:11;;;;;;;5.82;3.50;;;;;;;;;;5052624;28;20567;-30
2023/06/01 08:31:38;;;;;;;6.60;3.40;;;;;;;;;;5050121;28;20209;-29
2023/06/01 08:34:05;;;;;;;5.88;2.95;;;;;;;;;;5062923;28;20305;-29
2023/06/01 08:36:32;;;;;;;4.38;3.05;;;;;;;;;;5064936;28;20218;-32
2023/06/01 08:39:00;;;;;;;4.93;3.03;;;;;;;;;;5062790;28;20211;-29
2023/06/01 08:41:42;;;;;;;7.10;3.30;;;;;;;;;;5051622;28;20202;-30
2023/06/01 08:44:09;;;;;;;5.13;2.92;;;;;;;;;;5057691;28;20214;-27
2023/06/01 08:46:37;;;;;;;6.40;3.47;;;;;;;;;;5051980;28;20236;-28
2023/06/01 08:49:04;;;;;;;8.07;3.78;;;;;;;;;;5064042;28;20210;-30
2023/06/01 08:51:33;;;;;;;5.15;3.08;;;;;;;;;;5073371;28;20215;-29
2023/06/01 08:54:02;;;;;;;5.63;3.13;;;;;;;;;;5073423;28;20216;-35
2023/06/01 08:56:30;;;;;;;4.13;3.30;;;;;;;;;;5059541;28;20235;-34
2023/06/01 08:58:58;;;;;;;6.30;3.45;;;;;;;;;;5073506;28;20562;-33
2023/06/01 09:01:25;;;;;;;3.90;3.33;;;;;;;;;;5070078;28;20325;-34
2023/06/01 09:03:53;;;;;;;4.93;3.42;;;;;;;;;;5072378;28;20228;-31
2023/06/01 09:06:21;;;;;;;4.50;2.97;;;;;;;;;;5062531;28;20714;-34
2023/06/01 09:08:49;;;;;;;4.70;3.22;;;;;;;;;;5057044;28;20208;-34
2023/06/01 09:11:16;;;;;;;3.72;3.33;;;;;;;;;;5070258;28;20302;-38
2023/06/01 09:13:45;;;;;;;4.70;3.08;;;;;;;;;;5058933;28;20207;-30
2023/06/01 09:16:12;;;;;;;5.05;3.30;;;;;;;;;;5060579;28;20234;-33
2023/06/01 09:18:51;;;;;;;5.05;3.10;;;;;;;;;;5066909;28;20212;-33
2023/06/01 09:21:18;;;;;;;5.93;3.50;;;;;;;;;;5063280;28;20686;-36
2023/06/01 09:23:47;;;;;;;4.30;3.30;;;;;;;;;;5053212;28;20229;-36
2023/06/01 09:26:15;;;;;;;6.75;3.30;;;;;;;;;;5063996;28;20281;-37
2023/06/01 09:29:00;;;;;;;4.93;3.33;;;;;;;;;;5072425;28;20213;-33
2023/06/01 09:31:39;;;;;;;6.70;3.47;;;;;;;;;;5055080;28;20400;-33
2023/06/01 09:34:06;;;;;;;3.72;3.38;;;;;;;;;;5058769;28;20227;-30
2023/06/01 09:36:34;;;;;;;6.30;3.58;;;;;;;;;;5052386;28;20220;-31
2023/06/01 09:39:02;;;;;;;6.57;3.50;;;;;;;;;;5050134;28;20212;-32
2023/06/01 09:41:45;;;;;;;5.10;3.83;;;;;;;;;;5051885;28;20574;-33
2023/06/01 09:44:12;;;;;;;5.10;3.45;;;;;;;;;;5066339;28;20198;-37
2023/06/01 09:46:48;;;;;;;3.90;3.45;;;;;;;;;;5059901;28;20242;-39
2023/06/01 09:49:20;;;;;;;4.97;3.50;;;;;;;;;;5058597;28;20207;-33
2023/06/01 09:51:47;;;;;;;6.85;3.42;;;;;;;;;;5058173;28;20282;-33
2023/06/01 09:54:23;;;;;;;6.32;3.58;;;;;;;;;;5063694;28;20207;-29
2023/06/01 09:56:50;;;;;;;5.10;3.45;;;;;;;;;;5062988;28;20218;-36
2023/06/01 09:59:17;;;;;;;6.55;3.83;;;;;;;;;;5059371;28;20211;-37
2023/06/01 10:01:45;;;;;;;3.90;3.45;;;;;;;;;;5062906;28;20542;-37
2023/06/01 10:04:16;;;;;;;5.00;3.20;;;;;;;;;;5061792;28;20222;-31
2023/06/01 10:06:44;;;;;;;4.80;3.63;;;;;;;;;;5061211;28;20268;-32
2023/06/01 10:09:15;;;;;;;8.55;3.38;;;;;;;;;;5058458;28;20207;-31
2023/06/01 10:11:42;;;;;;;4.40;3.28;;;;;;;;;;5062432;28;20212;-38
2023/06/01 10:14:11;;;;;;;3.63;3.30;;;;;;;;;;5059882;28;20195;-32
2023/06/01 10:16:40;;;;;;;7.07;3.38;;;;;;;;;;5057919;28;20526;-31
2023/06/01 10:19:08;;;;;;;5.68;3.70;;;;;;;;;;5060599;28;20257;-36
2023/06/01 10:21:36;;;;;;;6.30;3.45;;;;;;;;;;5062848;28;20200;-34
2023/06/01 10:24:04;;;;;;;3.33;3.00;;;;;;;;;;5062196;28;20225;-31
2023/06/01 10:26:35;;;;;;;4.30;3.15;;;;;;;;;;5058101;28;20233;-37
2023/06/01 10:29:03;;;;;;;5.25;3.40;;;;;;;;;;5061482;28;20205;-28
2023/06/01 10:31:34;;;;;;;5.15;3.50;;;;;;;;;;5061230;28;20212;-31
2023/06/01 10:34:01;;;;;;;3.65;3.25;;;;;;;;;;5062374;28;20321;-37
2023/06/01 10:36:43;;;;;;;5.90;3.60;;;;;;;;;;5062483;28;20623;-37
2023/06/01 10:39:24;;;;;;;6.78;3.67;;;;;;;;;;5062034;28;20202;-36
2023/06/01 10:41:51;;;;;;;5.93;3.30;;;;;;;;;;5062164;28;20204;-32
2023/06/01 10:44:33;;;;;;;4.72;3.75;;;;;;;;;;5061781;28;20225;-37
2023/06/01 10:47:00;;;;;;;3.85;3.35;;;;;;;;;;5057281;28;20226;-34
2023/06/01 10:49:55;;;;;;;6.07;3.22;;;;;;;;;;5059825;28;20242;-32
2023/06/01 10:52:30;;;;;;;7.90;3.60;;;;;;;;;;5061197;28;20214;-39
2023/06/01 10:55:17;;;;;;;5.30;3.38;;;;;;;;;;5058767;28;20231;-32
2023/06/01 10:57:45;;;;;;;5.47;3.70;;;;;;;;;;5062422;28;20206;-33
2023/06/01 11:00:13;;;;;;;5.25;3.35;;;;;;;;;;5058993;28;20327;-34
2023/06/01 11:02:44;;;;;;;6.50;3.40;;;;;;;;;;5058225;28;20239;-35
2023/06/01 11:05:38;;;;;;;5.32;3.42;;;;;;;;;;5058313;28;20210;-30
2023/06/01 11:08:08;;;;;;;6.03;3.63;;;;;;;;;;5025347;28;20204;-30
2023/06/01 11:10:53;;;;;;;5.72;4.00;;;;;;;;;;5059415;28;20251;-37
2023/06/01 11:13:22;;;;;;;7.30;3.40;;;;;;;;;;5063168;28;20198;-32
2023/06/01 11:16:09;;;;;;;4.60;3.65;;;;;;;;;;5057240;28;20309;-33
2023/06/01 11:18:43;;;;;;;4.97;3.60;;;;;;;;;;5059275;28;20541;-32
2023/06/01 11:21:12;;;;;;;3.95;3.53;;;;;;;;;;5063747;28;20208;-35
2023/06/01 11:23:41;;;;;;;5.70;3.58;;;;;;;;;;5060347;28;20222;-32
2023/06/01 11:26:08;;;;;;;5.18;3.70;;;;;;;;;;5061980;28;20215;-34
2023/06/01 11:28:36;;;;;;;5.97;3.80;;;;;;;;;;5061950;28;20212;-33
2023/06/01 11:31:04;;;;;;;3.75;3.22;;;;;;;;;;5061096;28;20261;-33
2023/06/01 11:33:33;;;;;;;10.27;3.63;;;;;;;;;;5056821;28;20203;-29
2023/06/01 11:36:00;;;;;;;5.53;3.90;;;;;;;;;;5058394;28;20224;-33
2023/06/01 11:38:33;;;;;;;5.40;4.88;;;;;;;;;;5059321;28;20208;-35
2023/06/01 11:41:02;;;;;;;5.05;3.60;;;;;;;;;;5059567;28;20230;-34
2023/06/01 11:43:30;;;;;;;3.95;3.47;;;;;;;;;;5059897;28;20224;-36
2023/06/01 11:46:04;;;;;;;4.70;3.45;;;;;;;;;;5055925;28;20235;-34
2023/06/01 11:48:31;;;;;;;5.45;3.63;;;;;;;;;;5066093;28;20202;-31
2023/06/01 11:50:59;;;;;;;6.63;3.65;;;;;;;;;;5061504;28;20208;-34
2023/06/01 11:53:26;;;;;;;5.25;3.40;;;;;;;;;;5061257;28;20202;-31
2023/06/01 11:55:54;;;;;;;6.43;3.75;;;;;;;;;;5056549;28;20232;-31
2023/06/01 11:58:24;;;;;;;8.30;3.55;;;;;;;;;;5062144;28;20208;-33
2023/06/01 12:00:51;;;;;;;3.85;3.42;;;;;;;;;;5056998;28;20257;-36
2023/06/01 12:03:18;;;;;;;4.55;3.95;;;;;;;;;;5056652;28;20220;-35
2023/06/01 12:05:48;;;;;;;7.93;4.03;;;;;;;;;;5063661;28;20224;-31
2023/06/01 12:08:15;;;;;;;4.10;3.15;;;;;;;;;;5061943;28;20265;-36
2023/06/01 12:10:44;;;;;;;6.28;3.50;;;;;;;;;;5060762;28;20199;-32
2023/06/01 12:13:11;;;;;;;4.93;3.38;;;;;;;;;;5066294;28;20234;-30
2023/06/01 12:15:40;;;;;;;5.30;3.38;;;;;;;;;;5067851;28;20276;-32
2023/06/01 12:18:08;;;;;;;4.10;3.10;;;;;;;;;;5057883;28;20217;-30
2023/06/01 12:20:36;;;;;;;5.05;3.60;;;;;;;;;;5058478;28;20713;-32
2023/06/01 12:23:04;;;;;;;7.60;3.60;;;;;;;;;;5063118;28;20233;-36
2023/06/01 12:25:32;;;;;;;4.35;3.83;;;;;;;;;;5062746;28;20270;-37
2023/06/01 12:28:06;;;;;;;5.28;3.65;;;;;;;;;;5060551;28;20735;-31
2023/06/01 12:30:33;;;;;;;6.13;3.75;;;;;;;;;;5057254;28;20196;-33
2023/06/01 12:33:04;;;;;;;5.28;3.72;;;;;;;;;;5069093;28;20207;-34
2023/06/01 12:35:31;;;;;;;4.85;4.03;;;;;;;;;;5074200;28;20282;-32
2023/06/01 12:38:05;;;;;;;6.18;3.53;;;;;;;;;;5056736;28;20216;-31
2023/06/01 12:40:33;;;;;;;6.40;3.75;;;;;;;;;;5072135;28;20569;-32
2023/06/01 12:43:00;;;;;;;4.03;3.63;;;;;;;;;;5062363;28;20243;-29
2023/06/01 12:45:36;;;;;;;5.90;3.58;;;;;;;;;;5064436;28;20232;-32
2023/06/01 12:48:04;;;;;;;5.57;3.15;;;;;;;;;;5058117;28;20463;-32
2023/06/01 12:50:31;;;;;;;5.65;3.75;;;;;;;;;;5060553;28;20202;-32
2023/06/01 12:52:58;;;;;;;4.88;3.63;;;;;;;;;;5063386;28;20673;-35
2023/06/01 12:55:26;;;;;;;4.03;3.47;;;;;;;;;;5065267;28;20649;-33
2023/06/01 12:57:53;;;;;;;5.72;3.55;;;;;;;;;;5063894;28;20266;-35
2023/06/01 13:00:21;;;;;;;7.18;3.42;;;;;;;;;;5065346;28;20257;-30
2023/06/01 13:02:50;;;;;;;6.75;3.58;;;;;;;;;;5060864;28;20244;-35
2023/06/01 13:05:18;;;;;;;5.65;3.60;;;;;;;;;;5059892;28;20205;-33
2023/06/01 13:07:46;;;;;;;4.80;3.30;;;;;;;;;;5062181;28;20233;-32
2023/06/01 13:10:13;;;;;;;4.85;3.20;;;;;;;;;;5302311;22;20230;-29
2023/06/01 13:12:41;;;;;;;3.88;3.42;;;;;;;;;;5029244;28;20214;-32
2023/06/01 13:15:09;;;;;;;4.60;3.47;;;;;;;;;;5032056;28;20212;-30
2023/06/01 13:17:36;;;;;;;3.97;3.65;;;;;;;;;;5032014;28;20722;-30
2023/06/01 13:20:06;;;;;;;5.20;3.10;;;;;;;;;;5037820;28;20578;-28
2023/06/01 13:22:35;;;;;;;9.80;3.38;;;;;;;;;;5048451;28;20186;-30
2023/06/01 13:25:02;;;;;;;5.00;3.35;;;;;;;;;;5026777;28;20284;-29
2023/06/01 13:27:29;;;;;;;3.72;3.20;;;;;;;;;;5034648;28;20206;-29
2023/06/01 13:29:56;;;;;;;3.47;3.13;;;;;;;;;;5038709;28;20821;-30
2023/06/01 13:32:23;;;;;;;4.35;3.88;;;;;;;;;;5041803;28;20206;-32
2023/06/01 13:34:50;;;;;;;5.10;3.30;;;;;;;;;;5039129;28;20201;-33
2023/06/01 13:37:18;;;;;;;6.55;4.10;;;;;;;;;;5034699;28;20252;-31
2023/06/01 13:39:46;;;;;;;6.53;4.10;;;;;;;;;;5046192;28;20209;-33
2023/06/01 13:42:13;;;;;;;5.03;3.20;;;;;;;;;;5031807;28;20205;-32
2023/06/01 13:44:45;;;;;;;5.85;3.53;;;;;;;;;;5033993;28;20229;-28
2023/06/01 13:47:14;;;;;;;7.32;3.50;;;;;;;;;;5022801;28;20244;-32
2023/06/01 13:49:42;;;;;;;4.38;3.53;;;;;;;;;;5036158;28;20224;-33
2023/06/01 13:52:09;;;;;;;4.03;3.63;;;;;;;;;;5039411;28;20202;-29
2023/06/01 13:54:36;;;;;;;8.13;4.15;;;;;;;;;;5032891;28;20209;-29
2023/06/01 13:57:05;;;;;;;6.72;3.25;;;;;;;;;;5029552;28;20237;-32
2023/06/01 13:59:34;;;;;;;3.88;3.50;;;;;;;;;;5033676;28;20293;-32
2023/06/01 14:02:02;;;;;;;8.70;5.15;;;;;;;;;;5024326;28;20213;-33
2023/06/01 14:04:29;;;;;;;5.35;3.70;;;;;;;;;;5029630;28;20221;-30
2023/06/01 14:06:56;;;;;;;5.20;3.13;;;;;;;;;;5034194;28;20226;-32
2023/06/01 14:09:24;;;;;;;3.53;2.95;;;;;;;;;;5037357;28;20210;-30
2023/06/01 14:11:51;;;;;;;3.67;2.78;;;;;;;;;;5041084;28;20201;-31
2023/06/01 14:14:20;;;;;;;4.22;3.17;;;;;;;;;;5030278;28;20813;-27
2023/06/01 14:16:47;;;;;;;5.82;3.20;;;;;;;;;;5024077;28;20223;-28
2023/06/01 14:19:14;;;;;;;4.10;2.95;;;;;;;;;;5036770;28;20206;-33
2023/06/01 14:21:41;;;;;;;5.25;3.08;;;;;;;;;;5033066;28;20213;-31
2023/06/01 14:24:08;;;;;;;4.20;3.22;;;;;;;;;;5019218;28;20231;-31
2023/06/01 14:26:35;;;;;;;6.28;3.15;;;;;;;;;;5021349;28;20222;-31
2023/06/01 14:29:02;;;;;;;3.35;2.88;;;;;;;;;;5039076;28;20205;-28
2023/06/01 14:31:31;;;;;;;3.75;2.72;;;;;;;;;;5034994;28;20207;-31
2023/06/01 14:33:58;;;;;;;3.58;3.13;;;;;;;;;;5029709;28;20210;-32
2023/06/01 14:36:25;;;;;;;6.85;3.40;;;;;;;;;;5034089;28;20231;-28
2023/06/01 14:38:52;;;;;;;4.45;3.15;;;;;;;;;;5030734;28;20218;-31
2023/06/01 14:41:19;;;;;;;4.63;2.97;;;;;;;;;;5023843;28;20241;-27
2023/06/01 14:43:46;;;;;;;4.10;3.10;;;;;;;;;;5040722;28;20218;-31
2023/06/01 14:46:14;;;;;;;4.47;3.00;;;;;;;;;;5044400;28;20692;-32
2023/06/01 14:48:42;;;;;;;2.88;2.58;;;;;;;;;;5026759;28;20198;-31
2023/06/01 14:51:09;;;;;;;3.70;2.80;;;;;;;;;;5032872;28;20226;-29